BAW9024 LPAZ-EGLL
Flight info
| Callsign | BAW9024 |
|---|---|
| Flight time | N/A |
| Altitude | 37000 |
| Route | BEKUN DCT LENSI DCT LUPOV/M080F380 T13 NILAV/M080F370 DCT REGHI/N0460F380 DCT ORIST/N0459F370 DCT ERGUM L982 ROXOG |
| Aircraft | CONC/H-SDE2E3FGHIRYW/X |
Departure
| Time | 2026-05-07 17:54 |
|---|---|
| Airport | Santa Maria Airport (LPAZ) |
Arrival
| Time | N/A |
|---|---|
| Airport | London Heathrow Airport (EGLL) |
| Time | Latitude | Longitude | Altitude | Speed | Heading |
|---|---|---|---|---|---|
| 2026-05-07 17:47 | 36.97283 | -25.16717 | 334 ft | 0 kts | 351° |
| 2026-05-07 17:49 | 36.97286 | -25.16717 | 334 ft | 2 kts | 351° |
| 2026-05-07 17:49 | 36.97322 | -25.16750 | 332 ft | 12 kts | 283° |
| 2026-05-07 17:49 | 36.97337 | -25.16832 | 329 ft | 9 kts | 287° |
| 2026-05-07 17:49 | 36.97356 | -25.16920 | 324 ft | 11 kts | 282° |
| 2026-05-07 17:50 | 36.97358 | -25.16933 | 323 ft | 0 kts | 278° |
| 2026-05-07 17:50 | 36.97358 | -25.16940 | 323 ft | 2 kts | 278° |
| 2026-05-07 17:50 | 36.97366 | -25.17012 | 319 ft | 13 kts | 270° |
| 2026-05-07 17:50 | 36.97286 | -25.17081 | 315 ft | 19 kts | 179° |
| 2026-05-07 17:51 | 36.97153 | -25.17062 | 313 ft | 18 kts | 172° |
| 2026-05-07 17:51 | 36.97031 | -25.17038 | 312 ft | 18 kts | 171° |
| 2026-05-07 17:51 | 36.96896 | -25.17012 | 310 ft | 20 kts | 171° |
| 2026-05-07 17:51 | 36.96737 | -25.16982 | 307 ft | 26 kts | 171° |
| 2026-05-07 17:52 | 36.96547 | -25.16946 | 303 ft | 26 kts | 172° |
| 2026-05-07 17:52 | 36.96369 | -25.16912 | 300 ft | 24 kts | 172° |
| 2026-05-07 17:52 | 36.96205 | -25.16880 | 296 ft | 23 kts | 171° |
| 2026-05-07 17:52 | 36.96053 | -25.16859 | 294 ft | 20 kts | 178° |
| 2026-05-07 17:53 | 36.95912 | -25.16848 | 290 ft | 18 kts | 168° |
| 2026-05-07 17:53 | 36.95873 | -25.16816 | 289 ft | 2 kts | 46° |
| 2026-05-07 17:53 | 36.95876 | -25.16813 | 290 ft | 0 kts | 15° |
| 2026-05-07 17:53 | 36.95896 | -25.16812 | 291 ft | 15 kts | 356° |
| 2026-05-07 17:54 | 36.96261 | -25.16887 | 298 ft | 102 kts | 351° |
| 2026-05-07 17:54 | 36.97297 | -25.17092 | 323 ft | 196 kts | 343° |
| 2026-05-07 17:54 | 36.98824 | -25.17454 | 855 ft | 228 kts | 343° |
| 2026-05-07 17:54 | 37.00429 | -25.17874 | 997 ft | 239 kts | 344° |
| 2026-05-07 17:55 | 37.02063 | -25.18127 | 1306 ft | 246 kts | 5° |
| 2026-05-07 17:55 | 37.03697 | -25.17647 | 1964 ft | 249 kts | 14° |
| 2026-05-07 17:55 | 37.05309 | -25.16755 | 2248 ft | 257 kts | 23° |
| 2026-05-07 17:55 | 37.06723 | -25.15362 | 2812 ft | 269 kts | 51° |
| 2026-05-07 17:56 | 37.07628 | -25.13285 | 3498 ft | 276 kts | 58° |
| 2026-05-07 17:56 | 37.08524 | -25.11164 | 4066 ft | 278 kts | 51° |
| 2026-05-07 17:56 | 37.09558 | -25.09112 | 4624 ft | 278 kts | 50° |
| 2026-05-07 17:56 | 37.10573 | -25.07073 | 5242 ft | 280 kts | 52° |
| 2026-05-07 17:57 | 37.11568 | -25.04976 | 5870 ft | 282 kts | 53° |
| 2026-05-07 17:57 | 37.12233 | -25.03565 | 6252 ft | 283 kts | 52° |
| 2026-05-07 17:57 | 37.13577 | -25.00724 | 7014 ft | 288 kts | 52° |
| 2026-05-07 17:57 | 37.14595 | -24.98564 | 7578 ft | 289 kts | 53° |
| 2026-05-07 17:58 | 37.15625 | -24.96377 | 8153 ft | 292 kts | 53° |
| 2026-05-07 17:58 | 37.16655 | -24.94189 | 8722 ft | 296 kts | 53° |
| 2026-05-07 17:58 | 37.17707 | -24.91951 | 9303 ft | 299 kts | 53° |
| 2026-05-07 17:58 | 37.18766 | -24.89697 | 9874 ft | 303 kts | 53° |
| 2026-05-07 17:59 | 37.19823 | -24.87447 | 10446 ft | 312 kts | 53° |
| 2026-05-07 17:59 | 37.21004 | -24.84959 | 11190 ft | 347 kts | 53° |
| 2026-05-07 17:59 | 37.22272 | -24.82281 | 12129 ft | 378 kts | 54° |
| 2026-05-07 17:59 | 37.23656 | -24.79322 | 13367 ft | 406 kts | 54° |
| 2026-05-07 18:00 | 37.25118 | -24.76192 | 14553 ft | 437 kts | 55° |
| 2026-05-07 18:00 | 37.26157 | -24.73970 | 15363 ft | 459 kts | 55° |
| 2026-05-07 18:00 | 37.27590 | -24.70905 | 16426 ft | 489 kts | 55° |
| 2026-05-07 18:00 | 37.29376 | -24.67084 | 17664 ft | 527 kts | 55° |
| 2026-05-07 18:01 | 37.31265 | -24.63032 | 18851 ft | 549 kts | 55° |
| 2026-05-07 18:01 | 37.33203 | -24.58861 | 19906 ft | 560 kts | 55° |
| 2026-05-07 18:01 | 37.35169 | -24.54619 | 20924 ft | 571 kts | 54° |
| 2026-05-07 18:01 | 37.37177 | -24.50284 | 21954 ft | 581 kts | 54° |
| 2026-05-07 18:02 | 37.41303 | -24.41372 | 24018 ft | 601 kts | 54° |
| 2026-05-07 18:02 | 37.43388 | -24.36859 | 25039 ft | 612 kts | 54° |
| 2026-05-07 18:02 | 37.45526 | -24.32223 | 26051 ft | 618 kts | 54° |
| 2026-05-07 18:03 | 37.47714 | -24.27475 | 27076 ft | 626 kts | 54° |
| 2026-05-07 18:03 | 37.49878 | -24.22773 | 28242 ft | 638 kts | 54° |
| 2026-05-07 18:03 | 37.52110 | -24.17913 | 29079 ft | 636 kts | 54° |
| 2026-05-07 18:03 | 37.54313 | -24.13094 | 30142 ft | 635 kts | 54° |
| 2026-05-07 18:04 | 37.56515 | -24.08278 | 31394 ft | 643 kts | 54° |
| 2026-05-07 18:04 | 37.58766 | -24.03373 | 32019 ft | 657 kts | 55° |
| 2026-05-07 18:04 | 37.61081 | -23.98325 | 32489 ft | 674 kts | 55° |
| 2026-05-07 18:04 | 37.63431 | -23.93183 | 32914 ft | 688 kts | 56° |
| 2026-05-07 18:05 | 37.65833 | -23.87906 | 33396 ft | 699 kts | 56° |
| 2026-05-07 18:05 | 37.68243 | -23.82600 | 33982 ft | 709 kts | 56° |
| 2026-05-07 18:05 | 37.68862 | -23.81236 | 34128 ft | 711 kts | 56° |
| 2026-05-07 18:05 | 37.70929 | -23.76673 | 34564 ft | 719 kts | 56° |
| 2026-05-07 18:06 | 37.73349 | -23.71325 | 35083 ft | 728 kts | 56° |
| 2026-05-07 18:06 | 37.75949 | -23.65576 | 35665 ft | 739 kts | 56° |
| 2026-05-07 18:06 | 37.78521 | -23.59877 | 36242 ft | 750 kts | 57° |
| 2026-05-07 18:06 | 37.81087 | -23.54180 | 36810 ft | 760 kts | 57° |
| 2026-05-07 18:07 | 37.83737 | -23.48289 | 37360 ft | 771 kts | 57° |
| 2026-05-07 18:07 | 37.86360 | -23.42445 | 37922 ft | 782 kts | 57° |
| 2026-05-07 18:07 | 37.89075 | -23.36386 | 38589 ft | 793 kts | 57° |
| 2026-05-07 18:07 | 37.91775 | -23.30336 | 39180 ft | 805 kts | 59° |
| 2026-05-07 18:08 | 37.94419 | -23.24015 | 39724 ft | 818 kts | 62° |
| 2026-05-07 18:08 | 37.96845 | -23.17506 | 40252 ft | 830 kts | 64° |
| 2026-05-07 18:08 | 37.99120 | -23.10763 | 40804 ft | 841 kts | 65° |
| 2026-05-07 18:08 | 38.01419 | -23.03895 | 41340 ft | 851 kts | 65° |
| 2026-05-07 18:09 | 38.03785 | -22.97034 | 41882 ft | 861 kts | 65° |
| 2026-05-07 18:09 | 38.06214 | -22.90022 | 42419 ft | 872 kts | 65° |
| 2026-05-07 18:09 | 38.08620 | -22.83021 | 42961 ft | 883 kts | 65° |
| 2026-05-07 18:09 | 38.11089 | -22.75778 | 43517 ft | 895 kts | 65° |
| 2026-05-07 18:10 | 38.13549 | -22.68518 | 44063 ft | 908 kts | 65° |
| 2026-05-07 18:10 | 38.16038 | -22.61139 | 44614 ft | 922 kts | 66° |
| 2026-05-07 18:10 | 38.18566 | -22.53625 | 45156 ft | 937 kts | 66° |
| 2026-05-07 18:10 | 38.21149 | -22.45923 | 45741 ft | 955 kts | 66° |
| 2026-05-07 18:11 | 38.23755 | -22.38130 | 46353 ft | 974 kts | 66° |
| 2026-05-07 18:11 | 38.25512 | -22.32865 | 46774 ft | 987 kts | 66° |
| 2026-05-07 18:11 | 38.29071 | -22.22162 | 47551 ft | 994 kts | 66° |
| 2026-05-07 18:11 | 38.31766 | -22.14033 | 48080 ft | 1001 kts | 66° |
| 2026-05-07 18:12 | 38.34451 | -22.05909 | 48638 ft | 1014 kts | 66° |
| 2026-05-07 18:12 | 38.37200 | -21.97571 | 49190 ft | 1027 kts | 66° |
| 2026-05-07 18:12 | 38.39970 | -21.89144 | 49743 ft | 1039 kts | 66° |
| 2026-05-07 18:12 | 38.42739 | -21.80692 | 50291 ft | 1049 kts | 66° |
| 2026-05-07 18:13 | 38.45552 | -21.72086 | 50835 ft | 1059 kts | 67° |
| 2026-05-07 18:13 | 38.48391 | -21.63369 | 51389 ft | 1069 kts | 67° |
| 2026-05-07 18:13 | 38.51214 | -21.54676 | 51933 ft | 1077 kts | 67° |
| 2026-05-07 18:13 | 38.54080 | -21.45823 | 52477 ft | 1086 kts | 67° |
| 2026-05-07 18:14 | 38.56972 | -21.36860 | 52884 ft | 1096 kts | 67° |
| 2026-05-07 18:14 | 38.59859 | -21.27888 | 53243 ft | 1106 kts | 68° |
| 2026-05-07 18:14 | 38.62781 | -21.18775 | 53531 ft | 1118 kts | 68° |
| 2026-05-07 18:14 | 38.65729 | -21.09552 | 53642 ft | 1133 kts | 68° |
| 2026-05-07 18:15 | 38.68706 | -21.00204 | 53736 ft | 1149 kts | 68° |
| 2026-05-07 18:15 | 38.71675 | -20.90705 | 53812 ft | 1170 kts | 68° |
| 2026-05-07 18:15 | 38.74713 | -20.81032 | 53786 ft | 1175 kts | 68° |
| 2026-05-07 18:15 | 38.77738 | -20.71485 | 53643 ft | 1169 kts | 67° |
| 2026-05-07 18:16 | 38.80779 | -20.61880 | 53686 ft | 1164 kts | 67° |
| 2026-05-07 18:16 | 38.86804 | -20.42686 | 53643 ft | 1165 kts | 68° |
| 2026-05-07 18:17 | 38.92800 | -20.23385 | 53681 ft | 1167 kts | 68° |
| 2026-05-07 18:17 | 38.98749 | -20.04155 | 53680 ft | 1166 kts | 66° |
| 2026-05-07 18:18 | 39.06352 | -19.85846 | 53839 ft | 1168 kts | 52° |
| 2026-05-07 18:18 | 39.17125 | -19.70397 | 53741 ft | 1170 kts | 44° |
| 2026-05-07 18:18 | 39.22910 | -19.62987 | 53622 ft | 1164 kts | 45° |
| 2026-05-07 18:19 | 39.28431 | -19.55487 | 53759 ft | 1165 kts | 47° |
| 2026-05-07 18:19 | 39.39166 | -19.39786 | 53673 ft | 1164 kts | 49° |
| 2026-05-07 18:20 | 39.49575 | -19.23866 | 53683 ft | 1166 kts | 50° |
| 2026-05-07 18:20 | 39.59952 | -19.07769 | 53741 ft | 1167 kts | 50° |
| 2026-05-07 18:21 | 39.70280 | -18.91623 | 53725 ft | 1164 kts | 50° |
| 2026-05-07 18:21 | 39.80538 | -18.75491 | 53711 ft | 1163 kts | 50° |
| 2026-05-07 18:22 | 39.85654 | -18.67413 | 53723 ft | 1162 kts | 50° |